Terminal Aerodrome Forecast
Issued by NWS

Home | Current Version | Previous Version | Text Only | Print | Product List | Glossary On
Versions: 1 2 3 4 5 6 7 8 9 10 11 12 13 14 15 16 17 18 19 20
522
FTUS41 KBGM 051732
TAFITH
TAF
KITH 051732Z 0518/0618 27015G25KT P6SM OVC025
     FM052200 29008KT P6SM BKN040
     FM060200 29005KT P6SM BKN035
     FM060800 00000KT P6SM BKN050
      TEMPO 0608/0612 OVC025
     FM061400 14008KT P6SM SCT040 OVC200=

USA.gov is the U.S. government's official web portal to all federal, state and local government web resources and services.